sensor_id;sensor_type;location;lat;lon;timestamp;temperature;humidity
8892;DHT22;4482;54.332;10.118;2022-08-14T00:00:04;22.20;99.90
8892;DHT22;4482;54.332;10.118;2022-08-14T00:02:31;22.20;99.90
8892;DHT22;4482;54.332;10.118;2022-08-14T00:04:58;22.10;99.90
8892;DHT22;4482;54.332;10.118;2022-08-14T00:07:25;22.10;99.90
8892;DHT22;4482;54.332;10.118;2022-08-14T00:09:51;22.10;99.90
8892;DHT22;4482;54.332;10.118;2022-08-14T00:12:19;22.10;99.90
8892;DHT22;4482;54.332;10.118;2022-08-14T00:14:47;22.00;99.90
8892;DHT22;4482;54.332;10.118;2022-08-14T00:17:14;22.00;99.90
8892;DHT22;4482;54.332;10.118;2022-08-14T00:19:41;22.00;99.90
8892;DHT22;4482;54.332;10.118;2022-08-14T00:22:08;22.00;99.90
8892;DHT22;4482;54.332;10.118;2022-08-14T00:24:36;22.00;99.90
8892;DHT22;4482;54.332;10.118;2022-08-14T00:27:03;21.90;99.90
8892;DHT22;4482;54.332;10.118;2022-08-14T00:29:30;21.90;99.90
8892;DHT22;4482;54.332;10.118;2022-08-14T00:31:59;21.90;99.90
8892;DHT22;4482;54.332;10.118;2022-08-14T00:34:26;21.90;99.90
8892;DHT22;4482;54.332;10.118;2022-08-14T00:36:52;21.80;99.90
8892;DHT22;4482;54.332;10.118;2022-08-14T00:39:19;21.80;99.90
8892;DHT22;4482;54.332;10.118;2022-08-14T00:41:47;21.80;99.90
8892;DHT22;4482;54.332;10.118;2022-08-14T00:44:14;21.80;99.90
8892;DHT22;4482;54.332;10.118;2022-08-14T00:46:41;21.70;99.90
8892;DHT22;4482;54.332;10.118;2022-08-14T00:49:10;21.70;99.90
8892;DHT22;4482;54.332;10.118;2022-08-14T00:51:37;21.70;99.90
8892;DHT22;4482;54.332;10.118;2022-08-14T00:54:05;21.70;99.90
8892;DHT22;4482;54.332;10.118;2022-08-14T00:56:32;21.70;99.90
8892;DHT22;4482;54.332;10.118;2022-08-14T00:58:59;21.70;99.90
8892;DHT22;4482;54.332;10.118;2022-08-14T01:01:26;21.60;99.90
8892;DHT22;4482;54.332;10.118;2022-08-14T01:03:54;21.60;99.90
8892;DHT22;4482;54.332;10.118;2022-08-14T01:06:25;21.60;99.90
8892;DHT22;4482;54.332;10.118;2022-08-14T01:08:54;21.60;99.90
8892;DHT22;4482;54.332;10.118;2022-08-14T01:11:21;21.60;99.90
8892;DHT22;4482;54.332;10.118;2022-08-14T01:13:48;21.60;99.90
8892;DHT22;4482;54.332;10.118;2022-08-14T01:16:17;21.60;99.90
8892;DHT22;4482;54.332;10.118;2022-08-14T01:18:45;21.60;99.90
8892;DHT22;4482;54.332;10.118;2022-08-14T01:21:33;21.50;99.90
8892;DHT22;4482;54.332;10.118;2022-08-14T01:24:01;21.50;99.90
8892;DHT22;4482;54.332;10.118;2022-08-14T01:26:29;21.40;99.90
8892;DHT22;4482;54.332;10.118;2022-08-14T01:28:57;21.40;99.90
8892;DHT22;4482;54.332;10.118;2022-08-14T01:31:27;21.30;99.90
8892;DHT22;4482;54.332;10.118;2022-08-14T01:33:55;21.30;99.90
8892;DHT22;4482;54.332;10.118;2022-08-14T01:36:23;21.30;99.90
8892;DHT22;4482;54.332;10.118;2022-08-14T01:38:53;21.30;99.90
8892;DHT22;4482;54.332;10.118;2022-08-14T01:41:24;21.30;99.90
8892;DHT22;4482;54.332;10.118;2022-08-14T01:43:53;21.30;99.90
8892;DHT22;4482;54.332;10.118;2022-08-14T01:46:26;21.20;99.90
8892;DHT22;4482;54.332;10.118;2022-08-14T01:48:54;21.30;99.90
8892;DHT22;4482;54.332;10.118;2022-08-14T01:51:22;21.30;99.90
8892;DHT22;4482;54.332;10.118;2022-08-14T01:53:53;21.30;99.90
8892;DHT22;4482;54.332;10.118;2022-08-14T01:56:22;21.20;99.90
8892;DHT22;4482;54.332;10.118;2022-08-14T01:58:58;21.20;99.90
8892;DHT22;4482;54.332;10.118;2022-08-14T02:01:25;21.20;99.90
8892;DHT22;4482;54.332;10.118;2022-08-14T02:03:52;21.20;99.90
8892;DHT22;4482;54.332;10.118;2022-08-14T02:06:19;21.10;99.90
8892;DHT22;4482;54.332;10.118;2022-08-14T02:08:46;21.10;99.90
8892;DHT22;4482;54.332;10.118;2022-08-14T02:11:14;21.10;99.90
8892;DHT22;4482;54.332;10.118;2022-08-14T02:13:48;21.10;99.90
8892;DHT22;4482;54.332;10.118;2022-08-14T02:16:17;21.10;99.90
8892;DHT22;4482;54.332;10.118;2022-08-14T02:18:44;21.10;99.90
8892;DHT22;4482;54.332;10.118;2022-08-14T02:21:12;21.10;99.90
8892;DHT22;4482;54.332;10.118;2022-08-14T02:23:44;21.10;99.90
8892;DHT22;4482;54.332;10.118;2022-08-14T02:26:17;21.00;99.90
8892;DHT22;4482;54.332;10.118;2022-08-14T02:28:46;21.00;99.90
8892;DHT22;4482;54.332;10.118;2022-08-14T02:31:14;21.00;99.90
8892;DHT22;4482;54.332;10.118;2022-08-14T02:33:41;20.90;99.90
8892;DHT22;4482;54.332;10.118;2022-08-14T02:36:09;20.90;99.90
8892;DHT22;4482;54.332;10.118;2022-08-14T02:38:37;20.90;99.90
8892;DHT22;4482;54.332;10.118;2022-08-14T02:41:08;20.80;99.90
8892;DHT22;4482;54.332;10.118;2022-08-14T02:43:37;20.80;99.90
8892;DHT22;4482;54.332;10.118;2022-08-14T02:46:05;20.70;99.90
8892;DHT22;4482;54.332;10.118;2022-08-14T02:48:34;20.70;99.90
8892;DHT22;4482;54.332;10.118;2022-08-14T02:51:02;20.70;99.90
8892;DHT22;4482;54.332;10.118;2022-08-14T02:53:30;20.70;99.90
8892;DHT22;4482;54.332;10.118;2022-08-14T02:55:57;20.70;99.90
8892;DHT22;4482;54.332;10.118;2022-08-14T02:58:24;20.70;99.90
8892;DHT22;4482;54.332;10.118;2022-08-14T03:00:53;20.70;99.90
8892;DHT22;4482;54.332;10.118;2022-08-14T03:03:20;20.60;99.90
8892;DHT22;4482;54.332;10.118;2022-08-14T03:05:50;20.60;99.90
8892;DHT22;4482;54.332;10.118;2022-08-14T03:08:17;20.50;99.90
8892;DHT22;4482;54.332;10.118;2022-08-14T03:10:46;20.40;99.90
8892;DHT22;4482;54.332;10.118;2022-08-14T03:13:14;20.50;99.90
8892;DHT22;4482;54.332;10.118;2022-08-14T03:15:41;20.40;99.90
8892;DHT22;4482;54.332;10.118;2022-08-14T03:18:12;20.40;99.90
8892;DHT22;4482;54.332;10.118;2022-08-14T03:20:40;20.40;99.90
8892;DHT22;4482;54.332;10.118;2022-08-14T03:23:07;20.40;99.90
8892;DHT22;4482;54.332;10.118;2022-08-14T03:25:34;20.40;99.90
8892;DHT22;4482;54.332;10.118;2022-08-14T03:28:03;20.30;99.90
8892;DHT22;4482;54.332;10.118;2022-08-14T03:30:32;20.30;99.90
8892;DHT22;4482;54.332;10.118;2022-08-14T03:33:00;20.30;99.90
8892;DHT22;4482;54.332;10.118;2022-08-14T03:35:28;20.20;99.90
8892;DHT22;4482;54.332;10.118;2022-08-14T03:38:02;20.20;99.90
8892;DHT22;4482;54.332;10.118;2022-08-14T03:40:29;20.20;99.90
8892;DHT22;4482;54.332;10.118;2022-08-14T03:42:56;20.10;99.90
8892;DHT22;4482;54.332;10.118;2022-08-14T03:45:23;20.10;99.90
8892;DHT22;4482;54.332;10.118;2022-08-14T03:47:50;20.10;99.90
8892;DHT22;4482;54.332;10.118;2022-08-14T03:50:17;20.10;99.90
8892;DHT22;4482;54.332;10.118;2022-08-14T03:52:45;20.10;99.90
8892;DHT22;4482;54.332;10.118;2022-08-14T03:55:13;20.10;99.90
8892;DHT22;4482;54.332;10.118;2022-08-14T03:57:40;20.00;99.90
8892;DHT22;4482;54.332;10.118;2022-08-14T04:00:10;20.00;99.90
8892;DHT22;4482;54.332;10.118;2022-08-14T04:02:38;20.00;99.90
8892;DHT22;4482;54.332;10.118;2022-08-14T04:05:06;20.00;99.90
8892;DHT22;4482;54.332;10.118;2022-08-14T04:07:34;20.00;99.90
8892;DHT22;4482;54.332;10.118;2022-08-14T04:10:06;20.00;99.90
8892;DHT22;4482;54.332;10.118;2022-08-14T04:12:33;20.00;99.90
8892;DHT22;4482;54.332;10.118;2022-08-14T04:15:01;20.00;99.90
8892;DHT22;4482;54.332;10.118;2022-08-14T04:17:27;20.00;99.90
8892;DHT22;4482;54.332;10.118;2022-08-14T04:19:55;20.10;99.90
8892;DHT22;4482;54.332;10.118;2022-08-14T04:22:21;20.00;99.90
8892;DHT22;4482;54.332;10.118;2022-08-14T04:24:49;20.10;99.90
8892;DHT22;4482;54.332;10.118;2022-08-14T04:27:19;20.10;99.90
8892;DHT22;4482;54.332;10.118;2022-08-14T04:29:47;20.10;99.90
8892;DHT22;4482;54.332;10.118;2022-08-14T04:32:14;20.20;99.90
8892;DHT22;4482;54.332;10.118;2022-08-14T04:34:41;20.20;99.90
8892;DHT22;4482;54.332;10.118;2022-08-14T04:37:08;20.30;99.90
8892;DHT22;4482;54.332;10.118;2022-08-14T04:40:01;20.30;99.90
8892;DHT22;4482;54.332;10.118;2022-08-14T04:42:47;20.20;99.90
8892;DHT22;4482;54.332;10.118;2022-08-14T04:45:31;20.20;99.90
8892;DHT22;4482;54.332;10.118;2022-08-14T04:48:06;20.20;99.90
8892;DHT22;4482;54.332;10.118;2022-08-14T04:50:39;20.20;99.90
8892;DHT22;4482;54.332;10.118;2022-08-14T04:53:07;20.20;99.90
8892;DHT22;4482;54.332;10.118;2022-08-14T04:55:35;20.20;99.90
8892;DHT22;4482;54.332;10.118;2022-08-14T04:58:04;20.30;99.90
8892;DHT22;4482;54.332;10.118;2022-08-14T05:00:31;20.40;99.90
8892;DHT22;4482;54.332;10.118;2022-08-14T05:02:58;20.40;99.90
8892;DHT22;4482;54.332;10.118;2022-08-14T05:05:29;20.40;99.90
8892;DHT22;4482;54.332;10.118;2022-08-14T05:07:55;20.50;99.90
8892;DHT22;4482;54.332;10.118;2022-08-14T05:10:22;20.50;99.90
8892;DHT22;4482;54.332;10.118;2022-08-14T05:12:51;20.60;99.90
8892;DHT22;4482;54.332;10.118;2022-08-14T05:15:19;20.60;99.90
8892;DHT22;4482;54.332;10.118;2022-08-14T05:17:46;20.70;99.90
8892;DHT22;4482;54.332;10.118;2022-08-14T05:20:14;20.80;99.90
8892;DHT22;4482;54.332;10.118;2022-08-14T05:22:41;20.80;99.90
8892;DHT22;4482;54.332;10.118;2022-08-14T05:25:10;20.80;99.90
8892;DHT22;4482;54.332;10.118;2022-08-14T05:27:37;20.90;99.90
8892;DHT22;4482;54.332;10.118;2022-08-14T05:30:05;21.00;99.90
8892;DHT22;4482;54.332;10.118;2022-08-14T05:32:34;21.10;99.90
8892;DHT22;4482;54.332;10.118;2022-08-14T05:35:00;21.30;99.90
8892;DHT22;4482;54.332;10.118;2022-08-14T05:37:28;21.40;99.90
8892;DHT22;4482;54.332;10.118;2022-08-14T05:39:55;21.60;99.90
8892;DHT22;4482;54.332;10.118;2022-08-14T05:42:22;21.80;99.90
8892;DHT22;4482;54.332;10.118;2022-08-14T05:44:49;22.00;99.90
8892;DHT22;4482;54.332;10.118;2022-08-14T05:47:16;22.10;99.90
8892;DHT22;4482;54.332;10.118;2022-08-14T05:49:44;22.20;99.90
8892;DHT22;4482;54.332;10.118;2022-08-14T05:52:12;22.20;99.90
8892;DHT22;4482;54.332;10.118;2022-08-14T05:54:39;22.40;99.90
8892;DHT22;4482;54.332;10.118;2022-08-14T05:57:06;22.40;99.90
8892;DHT22;4482;54.332;10.118;2022-08-14T05:59:34;22.40;99.90
8892;DHT22;4482;54.332;10.118;2022-08-14T06:02:01;22.50;99.90
8892;DHT22;4482;54.332;10.118;2022-08-14T06:04:28;22.70;99.90
8892;DHT22;4482;54.332;10.118;2022-08-14T06:06:56;22.80;99.90
8892;DHT22;4482;54.332;10.118;2022-08-14T06:09:23;23.00;99.90
8892;DHT22;4482;54.332;10.118;2022-08-14T06:11:49;23.10;99.90
8892;DHT22;4482;54.332;10.118;2022-08-14T06:14:16;23.20;99.90
8892;DHT22;4482;54.332;10.118;2022-08-14T06:16:43;23.20;99.90
8892;DHT22;4482;54.332;10.118;2022-08-14T06:19:11;23.30;99.90
8892;DHT22;4482;54.332;10.118;2022-08-14T06:21:38;23.30;99.90
8892;DHT22;4482;54.332;10.118;2022-08-14T06:24:07;23.40;99.90
8892;DHT22;4482;54.332;10.118;2022-08-14T06:26:34;23.60;99.90
8892;DHT22;4482;54.332;10.118;2022-08-14T06:29:01;23.50;99.90
8892;DHT22;4482;54.332;10.118;2022-08-14T06:31:28;23.60;99.90
8892;DHT22;4482;54.332;10.118;2022-08-14T06:33:55;23.70;99.90
8892;DHT22;4482;54.332;10.118;2022-08-14T06:36:21;23.70;99.90
8892;DHT22;4482;54.332;10.118;2022-08-14T06:38:50;23.80;99.90
8892;DHT22;4482;54.332;10.118;2022-08-14T06:41:18;24.00;99.90
8892;DHT22;4482;54.332;10.118;2022-08-14T06:43:45;24.10;99.90
8892;DHT22;4482;54.332;10.118;2022-08-14T06:46:12;24.10;99.90
8892;DHT22;4482;54.332;10.118;2022-08-14T06:48:39;24.20;99.90
8892;DHT22;4482;54.332;10.118;2022-08-14T06:51:06;24.40;99.90
8892;DHT22;4482;54.332;10.118;2022-08-14T06:53:33;24.40;99.90
8892;DHT22;4482;54.332;10.118;2022-08-14T06:55:59;24.50;99.90
8892;DHT22;4482;54.332;10.118;2022-08-14T06:58:28;24.40;99.90
8892;DHT22;4482;54.332;10.118;2022-08-14T07:00:56;24.40;99.90
8892;DHT22;4482;54.332;10.118;2022-08-14T07:03:40;24.40;99.90
8892;DHT22;4482;54.332;10.118;2022-08-14T07:06:24;24.80;99.90
8892;DHT22;4482;54.332;10.118;2022-08-14T07:08:51;25.20;99.90
8892;DHT22;4482;54.332;10.118;2022-08-14T07:11:18;25.30;99.90
8892;DHT22;4482;54.332;10.118;2022-08-14T07:13:46;25.60;99.90
8892;DHT22;4482;54.332;10.118;2022-08-14T07:16:13;25.40;99.90
8892;DHT22;4482;54.332;10.118;2022-08-14T07:18:40;25.20;99.90
8892;DHT22;4482;54.332;10.118;2022-08-14T07:21:08;25.30;99.90
8892;DHT22;4482;54.332;10.118;2022-08-14T07:23:35;25.80;99.90
8892;DHT22;4482;54.332;10.118;2022-08-14T07:26:04;25.80;99.90
8892;DHT22;4482;54.332;10.118;2022-08-14T07:28:32;26.10;99.90
8892;DHT22;4482;54.332;10.118;2022-08-14T07:31:02;26.70;99.90
8892;DHT22;4482;54.332;10.118;2022-08-14T07:33:34;27.30;99.90
8892;DHT22;4482;54.332;10.118;2022-08-14T07:36:04;27.70;99.90
8892;DHT22;4482;54.332;10.118;2022-08-14T07:38:31;27.40;99.90
8892;DHT22;4482;54.332;10.118;2022-08-14T07:40:58;26.90;99.90
8892;DHT22;4482;54.332;10.118;2022-08-14T07:43:25;26.70;99.90
8892;DHT22;4482;54.332;10.118;2022-08-14T07:45:52;26.80;99.90
8892;DHT22;4482;54.332;10.118;2022-08-14T07:48:21;26.80;99.90
8892;DHT22;4482;54.332;10.118;2022-08-14T07:50:47;27.00;99.90
8892;DHT22;4482;54.332;10.118;2022-08-14T07:53:15;27.60;99.90
8892;DHT22;4482;54.332;10.118;2022-08-14T07:55:43;28.30;99.90
8892;DHT22;4482;54.332;10.118;2022-08-14T07:58:11;29.10;99.90
8892;DHT22;4482;54.332;10.118;2022-08-14T08:00:38;29.60;99.90
8892;DHT22;4482;54.332;10.118;2022-08-14T08:03:07;29.90;99.90
8892;DHT22;4482;54.332;10.118;2022-08-14T08:05:37;30.40;99.90
8892;DHT22;4482;54.332;10.118;2022-08-14T08:08:05;30.40;99.90
8892;DHT22;4482;54.332;10.118;2022-08-14T08:10:33;30.40;99.90
8892;DHT22;4482;54.332;10.118;2022-08-14T08:13:04;30.80;99.90
8892;DHT22;4482;54.332;10.118;2022-08-14T08:15:34;31.30;99.90
8892;DHT22;4482;54.332;10.118;2022-08-14T08:18:02;31.60;99.90
8892;DHT22;4482;54.332;10.118;2022-08-14T08:20:31;31.50;99.90
8892;DHT22;4482;54.332;10.118;2022-08-14T08:23:01;31.40;99.90
8892;DHT22;4482;54.332;10.118;2022-08-14T08:25:30;31.80;99.90
8892;DHT22;4482;54.332;10.118;2022-08-14T08:27:59;32.40;99.90
8892;DHT22;4482;54.332;10.118;2022-08-14T08:30:28;32.50;99.90
8892;DHT22;4482;54.332;10.118;2022-08-14T08:32:56;32.70;99.90
8892;DHT22;4482;54.332;10.118;2022-08-14T08:35:25;32.20;99.90
8892;DHT22;4482;54.332;10.118;2022-08-14T08:37:54;31.20;99.90
8892;DHT22;4482;54.332;10.118;2022-08-14T08:40:23;30.10;99.90
8892;DHT22;4482;54.332;10.118;2022-08-14T08:42:51;28.80;99.90
8892;DHT22;4482;54.332;10.118;2022-08-14T08:45:19;27.70;99.90
8892;DHT22;4482;54.332;10.118;2022-08-14T08:47:46;27.60;99.90
8892;DHT22;4482;54.332;10.118;2022-08-14T08:50:19;27.60;99.90
8892;DHT22;4482;54.332;10.118;2022-08-14T08:52:47;27.30;99.90
8892;DHT22;4482;54.332;10.118;2022-08-14T08:55:15;27.10;99.90
8892;DHT22;4482;54.332;10.118;2022-08-14T08:57:43;26.90;99.90
8892;DHT22;4482;54.332;10.118;2022-08-14T09:00:15;26.70;99.90
8892;DHT22;4482;54.332;10.118;2022-08-14T09:02:55;26.40;99.90
8892;DHT22;4482;54.332;10.118;2022-08-14T09:05:22;26.60;99.90
8892;DHT22;4482;54.332;10.118;2022-08-14T09:07:49;26.60;99.90
8892;DHT22;4482;54.332;10.118;2022-08-14T09:10:16;26.70;99.90
8892;DHT22;4482;54.332;10.118;2022-08-14T09:12:45;26.60;99.90
8892;DHT22;4482;54.332;10.118;2022-08-14T09:15:12;26.90;99.90
8892;DHT22;4482;54.332;10.118;2022-08-14T09:17:41;27.00;99.90
8892;DHT22;4482;54.332;10.118;2022-08-14T09:20:09;26.90;99.90
8892;DHT22;4482;54.332;10.118;2022-08-14T09:22:36;27.00;99.90
8892;DHT22;4482;54.332;10.118;2022-08-14T09:25:04;26.90;99.90
8892;DHT22;4482;54.332;10.118;2022-08-14T09:27:31;26.40;99.90
8892;DHT22;4482;54.332;10.118;2022-08-14T09:29:59;26.60;99.90
8892;DHT22;4482;54.332;10.118;2022-08-14T09:32:35;26.60;99.90
8892;DHT22;4482;54.332;10.118;2022-08-14T09:35:14;26.60;99.90
8892;DHT22;4482;54.332;10.118;2022-08-14T09:37:51;26.70;99.90
8892;DHT22;4482;54.332;10.118;2022-08-14T09:40:26;26.60;99.90
8892;DHT22;4482;54.332;10.118;2022-08-14T09:43:04;26.70;99.90
8892;DHT22;4482;54.332;10.118;2022-08-14T09:45:42;26.80;99.90
8892;DHT22;4482;54.332;10.118;2022-08-14T09:48:14;26.70;99.90
8892;DHT22;4482;54.332;10.118;2022-08-14T09:50:47;26.90;99.90
8892;DHT22;4482;54.332;10.118;2022-08-14T09:53:16;27.50;99.90
8892;DHT22;4482;54.332;10.118;2022-08-14T09:55:44;27.90;99.90
8892;DHT22;4482;54.332;10.118;2022-08-14T09:58:15;27.80;99.90
8892;DHT22;4482;54.332;10.118;2022-08-14T10:00:46;27.70;99.90
8892;DHT22;4482;54.332;10.118;2022-08-14T10:03:24;27.40;99.90
8892;DHT22;4482;54.332;10.118;2022-08-14T10:06:03;27.40;99.90
8892;DHT22;4482;54.332;10.118;2022-08-14T10:08:40;27.40;99.90
8892;DHT22;4482;54.332;10.118;2022-08-14T10:11:13;27.20;99.90
8892;DHT22;4482;54.332;10.118;2022-08-14T10:13:42;27.10;99.90
8892;DHT22;4482;54.332;10.118;2022-08-14T10:16:10;27.10;99.90
8892;DHT22;4482;54.332;10.118;2022-08-14T10:18:38;27.10;99.90
8892;DHT22;4482;54.332;10.118;2022-08-14T10:21:08;27.30;99.90
8892;DHT22;4482;54.332;10.118;2022-08-14T10:23:41;27.30;99.90
8892;DHT22;4482;54.332;10.118;2022-08-14T10:26:12;27.40;99.90
8892;DHT22;4482;54.332;10.118;2022-08-14T10:28:41;27.40;99.90
8892;DHT22;4482;54.332;10.118;2022-08-14T10:31:18;27.40;99.90
8892;DHT22;4482;54.332;10.118;2022-08-14T10:33:57;27.30;99.90
8892;DHT22;4482;54.332;10.118;2022-08-14T10:36:28;27.40;99.90
8892;DHT22;4482;54.332;10.118;2022-08-14T10:38:58;27.50;99.90
8892;DHT22;4482;54.332;10.118;2022-08-14T10:41:35;27.50;99.90
8892;DHT22;4482;54.332;10.118;2022-08-14T10:44:06;27.30;99.90
8892;DHT22;4482;54.332;10.118;2022-08-14T10:46:41;27.00;99.90
8892;DHT22;4482;54.332;10.118;2022-08-14T10:49:17;26.80;99.90
8892;DHT22;4482;54.332;10.118;2022-08-14T10:51:58;26.70;99.90
8892;DHT22;4482;54.332;10.118;2022-08-14T10:54:30;26.90;99.90
8892;DHT22;4482;54.332;10.118;2022-08-14T10:56:59;27.10;99.90
8892;DHT22;4482;54.332;10.118;2022-08-14T10:59:41;27.00;99.90
8892;DHT22;4482;54.332;10.118;2022-08-14T11:02:23;26.70;99.90
8892;DHT22;4482;54.332;10.118;2022-08-14T11:05:06;26.70;99.90
8892;DHT22;4482;54.332;10.118;2022-08-14T11:07:34;26.60;99.90
8892;DHT22;4482;54.332;10.118;2022-08-14T11:10:06;26.60;99.90
8892;DHT22;4482;54.332;10.118;2022-08-14T11:12:42;26.70;99.90
8892;DHT22;4482;54.332;10.118;2022-08-14T11:15:11;27.00;99.90
8892;DHT22;4482;54.332;10.118;2022-08-14T11:17:40;26.90;99.90
8892;DHT22;4482;54.332;10.118;2022-08-14T11:20:08;26.90;99.90
8892;DHT22;4482;54.332;10.118;2022-08-14T11:22:37;27.00;99.90
8892;DHT22;4482;54.332;10.118;2022-08-14T11:25:08;27.00;99.90
8892;DHT22;4482;54.332;10.118;2022-08-14T11:27:37;27.00;99.90
8892;DHT22;4482;54.332;10.118;2022-08-14T11:30:06;26.90;99.90
8892;DHT22;4482;54.332;10.118;2022-08-14T11:32:33;27.00;99.90
8892;DHT22;4482;54.332;10.118;2022-08-14T11:35:02;26.80;99.90
8892;DHT22;4482;54.332;10.118;2022-08-14T11:37:29;26.80;99.90
8892;DHT22;4482;54.332;10.118;2022-08-14T11:39:58;27.00;99.90
8892;DHT22;4482;54.332;10.118;2022-08-14T11:42:27;27.20;99.90
8892;DHT22;4482;54.332;10.118;2022-08-14T11:44:57;27.20;99.90
8892;DHT22;4482;54.332;10.118;2022-08-14T11:47:24;27.10;99.90
8892;DHT22;4482;54.332;10.118;2022-08-14T11:49:51;27.00;99.90
8892;DHT22;4482;54.332;10.118;2022-08-14T11:52:19;27.00;99.90
8892;DHT22;4482;54.332;10.118;2022-08-14T11:54:56;27.00;99.90
8892;DHT22;4482;54.332;10.118;2022-08-14T11:57:23;27.00;99.90
8892;DHT22;4482;54.332;10.118;2022-08-14T11:59:59;27.00;99.90
8892;DHT22;4482;54.332;10.118;2022-08-14T12:02:26;27.10;99.90
8892;DHT22;4482;54.332;10.118;2022-08-14T12:04:53;27.20;99.90
8892;DHT22;4482;54.332;10.118;2022-08-14T12:07:21;27.30;99.90
8892;DHT22;4482;54.332;10.118;2022-08-14T12:09:52;27.20;99.90
8892;DHT22;4482;54.332;10.118;2022-08-14T12:12:21;27.20;99.90
8892;DHT22;4482;54.332;10.118;2022-08-14T12:14:49;27.20;99.90
8892;DHT22;4482;54.332;10.118;2022-08-14T12:17:18;27.10;99.90
8892;DHT22;4482;54.332;10.118;2022-08-14T12:19:47;27.20;99.90
8892;DHT22;4482;54.332;10.118;2022-08-14T12:22:15;27.30;99.90
8892;DHT22;4482;54.332;10.118;2022-08-14T12:24:43;27.30;99.90
8892;DHT22;4482;54.332;10.118;2022-08-14T12:27:10;27.30;99.90
8892;DHT22;4482;54.332;10.118;2022-08-14T12:29:49;27.20;99.90
8892;DHT22;4482;54.332;10.118;2022-08-14T12:32:17;27.20;99.90
8892;DHT22;4482;54.332;10.118;2022-08-14T12:34:51;27.30;99.90
8892;DHT22;4482;54.332;10.118;2022-08-14T12:37:28;27.30;99.90
8892;DHT22;4482;54.332;10.118;2022-08-14T12:40:10;27.40;99.90
8892;DHT22;4482;54.332;10.118;2022-08-14T12:42:38;27.50;99.90
8892;DHT22;4482;54.332;10.118;2022-08-14T12:45:06;27.50;99.90
8892;DHT22;4482;54.332;10.118;2022-08-14T12:47:35;27.50;99.90
8892;DHT22;4482;54.332;10.118;2022-08-14T12:50:03;27.50;99.90
8892;DHT22;4482;54.332;10.118;2022-08-14T12:52:31;27.50;99.90
8892;DHT22;4482;54.332;10.118;2022-08-14T12:55:01;27.50;99.90
8892;DHT22;4482;54.332;10.118;2022-08-14T12:57:37;27.60;99.90
8892;DHT22;4482;54.332;10.118;2022-08-14T13:00:12;27.60;99.90
8892;DHT22;4482;54.332;10.118;2022-08-14T13:02:40;27.50;99.90
8892;DHT22;4482;54.332;10.118;2022-08-14T13:05:09;27.50;99.90
8892;DHT22;4482;54.332;10.118;2022-08-14T13:07:37;27.50;99.90
8892;DHT22;4482;54.332;10.118;2022-08-14T13:10:08;27.50;99.90
8892;DHT22;4482;54.332;10.118;2022-08-14T13:12:36;27.40;99.90
8892;DHT22;4482;54.332;10.118;2022-08-14T13:15:06;27.50;99.90
8892;DHT22;4482;54.332;10.118;2022-08-14T13:17:40;27.40;99.90
8892;DHT22;4482;54.332;10.118;2022-08-14T13:20:09;27.40;99.90
8892;DHT22;4482;54.332;10.118;2022-08-14T13:22:37;27.40;99.90
8892;DHT22;4482;54.332;10.118;2022-08-14T13:25:09;27.60;99.90
8892;DHT22;4482;54.332;10.118;2022-08-14T13:27:37;27.80;99.90
8892;DHT22;4482;54.332;10.118;2022-08-14T13:30:06;27.70;99.90
8892;DHT22;4482;54.332;10.118;2022-08-14T13:32:33;27.60;99.90
8892;DHT22;4482;54.332;10.118;2022-08-14T13:35:04;27.50;99.90
8892;DHT22;4482;54.332;10.118;2022-08-14T13:37:32;27.40;99.90
8892;DHT22;4482;54.332;10.118;2022-08-14T13:39:59;27.40;99.90
8892;DHT22;4482;54.332;10.118;2022-08-14T13:42:27;27.30;99.90
8892;DHT22;4482;54.332;10.118;2022-08-14T13:44:56;27.30;99.90
8892;DHT22;4482;54.332;10.118;2022-08-14T13:47:24;27.30;99.90
8892;DHT22;4482;54.332;10.118;2022-08-14T13:49:55;27.40;99.90
8892;DHT22;4482;54.332;10.118;2022-08-14T13:52:23;27.20;99.90
8892;DHT22;4482;54.332;10.118;2022-08-14T13:54:52;27.10;99.90
8892;DHT22;4482;54.332;10.118;2022-08-14T13:57:19;27.10;99.90
8892;DHT22;4482;54.332;10.118;2022-08-14T13:59:49;27.10;99.90
8892;DHT22;4482;54.332;10.118;2022-08-14T14:02:17;27.00;99.90
8892;DHT22;4482;54.332;10.118;2022-08-14T14:04:47;27.00;99.90
8892;DHT22;4482;54.332;10.118;2022-08-14T14:07:15;27.10;99.90
8892;DHT22;4482;54.332;10.118;2022-08-14T14:10:00;27.10;99.90
8892;DHT22;4482;54.332;10.118;2022-08-14T14:12:27;27.10;99.90
8892;DHT22;4482;54.332;10.118;2022-08-14T14:14:59;27.10;99.90
8892;DHT22;4482;54.332;10.118;2022-08-14T14:17:26;27.00;99.90
8892;DHT22;4482;54.332;10.118;2022-08-14T14:19:54;27.00;99.90
8892;DHT22;4482;54.332;10.118;2022-08-14T14:22:22;27.00;99.90
8892;DHT22;4482;54.332;10.118;2022-08-14T14:24:50;27.00;99.90
8892;DHT22;4482;54.332;10.118;2022-08-14T14:27:18;27.00;99.90
8892;DHT22;4482;54.332;10.118;2022-08-14T14:29:47;26.90;99.90
8892;DHT22;4482;54.332;10.118;2022-08-14T14:32:17;26.80;99.90
8892;DHT22;4482;54.332;10.118;2022-08-14T14:34:44;26.80;99.90
8892;DHT22;4482;54.332;10.118;2022-08-14T14:37:12;26.80;99.90
8892;DHT22;4482;54.332;10.118;2022-08-14T14:39:40;26.80;99.90
8892;DHT22;4482;54.332;10.118;2022-08-14T14:42:08;26.90;99.90
8892;DHT22;4482;54.332;10.118;2022-08-14T14:44:37;26.80;99.90
8892;DHT22;4482;54.332;10.118;2022-08-14T14:47:07;26.90;99.90
8892;DHT22;4482;54.332;10.118;2022-08-14T14:49:36;26.80;99.90
8892;DHT22;4482;54.332;10.118;2022-08-14T14:52:05;26.80;99.90
8892;DHT22;4482;54.332;10.118;2022-08-14T14:54:33;26.80;99.90
8892;DHT22;4482;54.332;10.118;2022-08-14T14:57:01;26.60;99.90
8892;DHT22;4482;54.332;10.118;2022-08-14T14:59:29;26.70;99.90
8892;DHT22;4482;54.332;10.118;2022-08-14T15:02:01;26.70;99.90
8892;DHT22;4482;54.332;10.118;2022-08-14T15:04:31;26.70;99.90
8892;DHT22;4482;54.332;10.118;2022-08-14T15:06:59;26.70;99.90
8892;DHT22;4482;54.332;10.118;2022-08-14T15:09:26;26.70;99.90
8892;DHT22;4482;54.332;10.118;2022-08-14T15:11:53;26.70;99.90
8892;DHT22;4482;54.332;10.118;2022-08-14T15:14:19;26.70;99.90
8892;DHT22;4482;54.332;10.118;2022-08-14T15:16:46;26.70;99.90
8892;DHT22;4482;54.332;10.118;2022-08-14T15:19:14;26.60;99.90
8892;DHT22;4482;54.332;10.118;2022-08-14T15:21:41;26.60;99.90
8892;DHT22;4482;54.332;10.118;2022-08-14T15:24:09;26.60;99.90
8892;DHT22;4482;54.332;10.118;2022-08-14T15:26:36;26.50;99.90
8892;DHT22;4482;54.332;10.118;2022-08-14T15:29:04;26.40;99.90
8892;DHT22;4482;54.332;10.118;2022-08-14T15:31:33;26.40;99.90
8892;DHT22;4482;54.332;10.118;2022-08-14T15:34:00;26.30;99.90
8892;DHT22;4482;54.332;10.118;2022-08-14T15:36:36;26.20;99.90
8892;DHT22;4482;54.332;10.118;2022-08-14T15:39:04;26.10;99.90
8892;DHT22;4482;54.332;10.118;2022-08-14T15:41:32;26.10;99.90
8892;DHT22;4482;54.332;10.118;2022-08-14T15:44:00;26.10;99.90
8892;DHT22;4482;54.332;10.118;2022-08-14T15:46:27;26.00;99.90
8892;DHT22;4482;54.332;10.118;2022-08-14T15:48:54;26.00;99.90
8892;DHT22;4482;54.332;10.118;2022-08-14T15:51:21;25.90;99.90
8892;DHT22;4482;54.332;10.118;2022-08-14T15:53:48;25.80;99.90
8892;DHT22;4482;54.332;10.118;2022-08-14T15:56:16;25.70;99.90